sensor_id;sensor_type;location;lat;lon;timestamp;temperature;humidity
25933;DHT22;13731;51.166;4.474;2023-02-02T00:02:03;9.80;97.20
25933;DHT22;13731;51.166;4.474;2023-02-02T00:04:32;9.80;51.20
25933;DHT22;13731;51.166;4.474;2023-02-02T00:06:58;9.80;99.90
25933;DHT22;13731;51.166;4.474;2023-02-02T00:09:29;9.80;60.20
25933;DHT22;13731;51.166;4.474;2023-02-02T00:11:56;9.70;99.90
25933;DHT22;13731;51.166;4.474;2023-02-02T00:14:23;9.70;99.90
25933;DHT22;13731;51.166;4.474;2023-02-02T00:16:53;9.70;99.90
25933;DHT22;13731;51.166;4.474;2023-02-02T00:19:22;9.80;95.60
25933;DHT22;13731;51.166;4.474;2023-02-02T00:21:49;9.80;99.90
25933;DHT22;13731;51.166;4.474;2023-02-02T00:24:16;9.80;38.60
25933;DHT22;13731;51.166;4.474;2023-02-02T00:26:43;9.80;6.10
25933;DHT22;13731;51.166;4.474;2023-02-02T00:29:14;9.70;99.90
25933;DHT22;13731;51.166;4.474;2023-02-02T00:31:41;9.70;99.90
25933;DHT22;13731;51.166;4.474;2023-02-02T00:34:08;9.90;1.00
25933;DHT22;13731;51.166;4.474;2023-02-02T00:36:34;9.70;99.90
25933;DHT22;13731;51.166;4.474;2023-02-02T00:39:00;9.60;99.90
25933;DHT22;13731;51.166;4.474;2023-02-02T00:41:26;9.70;99.90
25933;DHT22;13731;51.166;4.474;2023-02-02T00:43:52;9.70;99.90
25933;DHT22;13731;51.166;4.474;2023-02-02T00:46:47;9.70;99.90
25933;DHT22;13731;51.166;4.474;2023-02-02T00:49:13;9.90;99.90
25933;DHT22;13731;51.166;4.474;2023-02-02T00:51:39;9.80;99.90
25933;DHT22;13731;51.166;4.474;2023-02-02T00:54:05;9.70;1.00
25933;DHT22;13731;51.166;4.474;2023-02-02T00:56:30;9.70;1.00
25933;DHT22;13731;51.166;4.474;2023-02-02T00:58:56;9.70;1.00
25933;DHT22;13731;51.166;4.474;2023-02-02T01:01:22;9.60;1.00
25933;DHT22;13731;51.166;4.474;2023-02-02T01:03:49;9.60;1.00
25933;DHT22;13731;51.166;4.474;2023-02-02T01:06:16;9.70;1.00
25933;DHT22;13731;51.166;4.474;2023-02-02T01:08:42;9.70;99.90
25933;DHT22;13731;51.166;4.474;2023-02-02T01:11:08;9.80;99.90
25933;DHT22;13731;51.166;4.474;2023-02-02T01:13:34;9.70;99.90
25933;DHT22;13731;51.166;4.474;2023-02-02T01:16:01;9.70;1.00
25933;DHT22;13731;51.166;4.474;2023-02-02T01:18:28;9.70;1.00
25933;DHT22;13731;51.166;4.474;2023-02-02T01:21:04;9.70;1.00
25933;DHT22;13731;51.166;4.474;2023-02-02T01:23:30;9.80;99.90
25933;DHT22;13731;51.166;4.474;2023-02-02T01:25:59;9.90;99.90
25933;DHT22;13731;51.166;4.474;2023-02-02T01:28:26;9.80;99.90
25933;DHT22;13731;51.166;4.474;2023-02-02T01:30:53;9.90;99.90
25933;DHT22;13731;51.166;4.474;2023-02-02T01:33:21;9.90;99.90
25933;DHT22;13731;51.166;4.474;2023-02-02T01:35:49;9.90;99.90
25933;DHT22;13731;51.166;4.474;2023-02-02T01:38:16;9.80;99.90
25933;DHT22;13731;51.166;4.474;2023-02-02T01:40:53;9.80;99.90
25933;DHT22;13731;51.166;4.474;2023-02-02T01:43:28;9.80;99.90
25933;DHT22;13731;51.166;4.474;2023-02-02T01:45:55;9.90;99.90
25933;DHT22;13731;51.166;4.474;2023-02-02T01:48:33;10.00;93.90
25933;DHT22;13731;51.166;4.474;2023-02-02T01:51:02;9.90;99.90
25933;DHT22;13731;51.166;4.474;2023-02-02T01:53:30;10.00;93.40
25933;DHT22;13731;51.166;4.474;2023-02-02T01:55:58;9.90;99.90
25933;DHT22;13731;51.166;4.474;2023-02-02T01:58:33;9.80;99.90
25933;DHT22;13731;51.166;4.474;2023-02-02T02:01:00;9.70;99.90
25933;DHT22;13731;51.166;4.474;2023-02-02T02:03:28;9.70;1.00
25933;DHT22;13731;51.166;4.474;2023-02-02T02:06:04;9.60;1.00
25933;DHT22;13731;51.166;4.474;2023-02-02T02:08:49;9.60;1.00
25933;DHT22;13731;51.166;4.474;2023-02-02T02:11:19;9.90;99.90
25933;DHT22;13731;51.166;4.474;2023-02-02T02:13:45;9.70;99.90
25933;DHT22;13731;51.166;4.474;2023-02-02T02:29:11;9.50;99.90
25933;DHT22;13731;51.166;4.474;2023-02-02T02:31:56;9.50;99.90
25933;DHT22;13731;51.166;4.474;2023-02-02T02:37:18;9.40;99.90
25933;DHT22;13731;51.166;4.474;2023-02-02T02:42:38;9.40;99.90
25933;DHT22;13731;51.166;4.474;2023-02-02T02:45:07;9.50;99.90
25933;DHT22;13731;51.166;4.474;2023-02-02T02:47:34;9.40;99.90
25933;DHT22;13731;51.166;4.474;2023-02-02T02:50:03;9.30;1.00
25933;DHT22;13731;51.166;4.474;2023-02-02T02:52:29;9.20;99.90
25933;DHT22;13731;51.166;4.474;2023-02-02T02:54:57;9.20;99.90
25933;DHT22;13731;51.166;4.474;2023-02-02T03:02:48;9.20;99.90
25933;DHT22;13731;51.166;4.474;2023-02-02T03:08:15;9.10;99.90
25933;DHT22;13731;51.166;4.474;2023-02-02T03:10:44;9.00;1.00
25933;DHT22;13731;51.166;4.474;2023-02-02T03:13:12;8.90;99.90
25933;DHT22;13731;51.166;4.474;2023-02-02T03:15:45;8.90;99.90
25933;DHT22;13731;51.166;4.474;2023-02-02T03:18:13;9.00;21.10
25933;DHT22;13731;51.166;4.474;2023-02-02T03:20:40;9.10;1.00
25933;DHT22;13731;51.166;4.474;2023-02-02T03:23:07;9.00;56.30
25933;DHT22;13731;51.166;4.474;2023-02-02T03:25:33;8.90;99.90
25933;DHT22;13731;51.166;4.474;2023-02-02T03:27:59;8.90;99.90
25933;DHT22;13731;51.166;4.474;2023-02-02T03:30:25;9.10;6.10
25933;DHT22;13731;51.166;4.474;2023-02-02T03:32:52;9.10;1.00
25933;DHT22;13731;51.166;4.474;2023-02-02T03:35:18;8.90;99.90
25933;DHT22;13731;51.166;4.474;2023-02-02T03:37:46;8.90;99.90
25933;DHT22;13731;51.166;4.474;2023-02-02T03:40:12;8.90;99.90
25933;DHT22;13731;51.166;4.474;2023-02-02T03:42:38;8.90;99.90
25933;DHT22;13731;51.166;4.474;2023-02-02T03:45:05;8.80;99.90
25933;DHT22;13731;51.166;4.474;2023-02-02T03:47:31;9.00;90.00
25933;DHT22;13731;51.166;4.474;2023-02-02T03:49:57;9.00;84.20
25933;DHT22;13731;51.166;4.474;2023-02-02T03:52:23;9.00;99.90
25933;DHT22;13731;51.166;4.474;2023-02-02T03:54:49;9.00;99.90
25933;DHT22;13731;51.166;4.474;2023-02-02T03:57:15;9.20;1.00
25933;DHT22;13731;51.166;4.474;2023-02-02T03:59:41;9.30;99.90
25933;DHT22;13731;51.166;4.474;2023-02-02T04:02:07;9.30;99.90
25933;DHT22;13731;51.166;4.474;2023-02-02T04:04:33;9.30;99.90
25933;DHT22;13731;51.166;4.474;2023-02-02T04:06:59;9.40;99.90
25933;DHT22;13731;51.166;4.474;2023-02-02T04:09:26;9.30;99.90
25933;DHT22;13731;51.166;4.474;2023-02-02T04:11:53;9.30;99.90
25933;DHT22;13731;51.166;4.474;2023-02-02T04:14:19;9.20;99.90
25933;DHT22;13731;51.166;4.474;2023-02-02T04:16:45;9.10;1.00
25933;DHT22;13731;51.166;4.474;2023-02-02T04:19:11;9.10;1.00
25933;DHT22;13731;51.166;4.474;2023-02-02T04:21:40;9.20;1.00
25933;DHT22;13731;51.166;4.474;2023-02-02T04:24:09;9.20;1.00
25933;DHT22;13731;51.166;4.474;2023-02-02T04:26:36;9.10;1.00
25933;DHT22;13731;51.166;4.474;2023-02-02T04:29:01;9.00;2.80
25933;DHT22;13731;51.166;4.474;2023-02-02T04:31:27;9.00;99.90
25933;DHT22;13731;51.166;4.474;2023-02-02T04:33:58;9.00;99.90
25933;DHT22;13731;51.166;4.474;2023-02-02T04:36:24;9.10;90.30
25933;DHT22;13731;51.166;4.474;2023-02-02T04:38:51;9.00;99.90
25933;DHT22;13731;51.166;4.474;2023-02-02T04:41:18;9.10;1.00
25933;DHT22;13731;51.166;4.474;2023-02-02T04:43:45;9.10;1.00
25933;DHT22;13731;51.166;4.474;2023-02-02T04:46:11;9.10;1.00
25933;DHT22;13731;51.166;4.474;2023-02-02T04:48:37;9.20;1.00
25933;DHT22;13731;51.166;4.474;2023-02-02T04:51:10;9.10;1.00
25933;DHT22;13731;51.166;4.474;2023-02-02T04:53:37;9.10;1.00
25933;DHT22;13731;51.166;4.474;2023-02-02T04:56:16;9.20;1.00
25933;DHT22;13731;51.166;4.474;2023-02-02T04:58:44;9.10;1.00
25933;DHT22;13731;51.166;4.474;2023-02-02T05:01:14;9.10;1.00
25933;DHT22;13731;51.166;4.474;2023-02-02T05:03:40;9.20;1.00
25933;DHT22;13731;51.166;4.474;2023-02-02T05:06:06;9.00;1.00
25933;DHT22;13731;51.166;4.474;2023-02-02T05:08:33;9.00;60.80
25933;DHT22;13731;51.166;4.474;2023-02-02T05:10:59;9.00;91.50
25933;DHT22;13731;51.166;4.474;2023-02-02T05:13:25;9.00;1.00
25933;DHT22;13731;51.166;4.474;2023-02-02T05:15:52;9.00;99.90
25933;DHT22;13731;51.166;4.474;2023-02-02T05:18:18;9.00;99.90
25933;DHT22;13731;51.166;4.474;2023-02-02T05:20:44;9.00;99.90
25933;DHT22;13731;51.166;4.474;2023-02-02T05:23:10;8.90;99.90
25933;DHT22;13731;51.166;4.474;2023-02-02T05:25:36;8.80;99.90
25933;DHT22;13731;51.166;4.474;2023-02-02T05:28:02;8.90;99.90
25933;DHT22;13731;51.166;4.474;2023-02-02T05:30:28;8.80;99.90
25933;DHT22;13731;51.166;4.474;2023-02-02T05:32:54;8.80;1.00
25933;DHT22;13731;51.166;4.474;2023-02-02T05:35:20;8.70;1.00
25933;DHT22;13731;51.166;4.474;2023-02-02T05:37:46;8.70;1.00
25933;DHT22;13731;51.166;4.474;2023-02-02T05:40:11;8.80;1.00
25933;DHT22;13731;51.166;4.474;2023-02-02T05:42:37;8.90;99.90
25933;DHT22;13731;51.166;4.474;2023-02-02T05:45:03;8.80;1.00
25933;DHT22;13731;51.166;4.474;2023-02-02T05:47:30;8.70;1.00
25933;DHT22;13731;51.166;4.474;2023-02-02T05:49:55;8.80;1.00
25933;DHT22;13731;51.166;4.474;2023-02-02T05:52:22;8.70;1.00
25933;DHT22;13731;51.166;4.474;2023-02-02T05:54:49;8.80;1.00
25933;DHT22;13731;51.166;4.474;2023-02-02T05:57:15;8.80;1.00
25933;DHT22;13731;51.166;4.474;2023-02-02T05:59:41;8.80;1.00
25933;DHT22;13731;51.166;4.474;2023-02-02T06:02:07;8.80;1.00
25933;DHT22;13731;51.166;4.474;2023-02-02T06:04:33;8.70;13.90
25933;DHT22;13731;51.166;4.474;2023-02-02T06:06:59;8.70;99.90
25933;DHT22;13731;51.166;4.474;2023-02-02T06:09:25;8.70;99.90
25933;DHT22;13731;51.166;4.474;2023-02-02T06:11:51;8.80;1.00
25933;DHT22;13731;51.166;4.474;2023-02-02T06:14:17;8.80;1.00
25933;DHT22;13731;51.166;4.474;2023-02-02T06:16:42;8.80;1.00
25933;DHT22;13731;51.166;4.474;2023-02-02T06:19:08;8.90;1.00
25933;DHT22;13731;51.166;4.474;2023-02-02T06:21:34;8.80;1.00
25933;DHT22;13731;51.166;4.474;2023-02-02T06:24:00;8.90;1.00
25933;DHT22;13731;51.166;4.474;2023-02-02T06:26:26;9.10;99.90
25933;DHT22;13731;51.166;4.474;2023-02-02T06:28:55;9.00;99.90
25933;DHT22;13731;51.166;4.474;2023-02-02T06:31:22;9.00;99.90
25933;DHT22;13731;51.166;4.474;2023-02-02T06:33:53;8.90;99.90
25933;DHT22;13731;51.166;4.474;2023-02-02T06:36:19;8.80;1.00
25933;DHT22;13731;51.166;4.474;2023-02-02T06:38:50;8.80;1.00
25933;DHT22;13731;51.166;4.474;2023-02-02T06:41:17;8.80;1.00
25933;DHT22;13731;51.166;4.474;2023-02-02T06:43:43;8.80;99.90
25933;DHT22;13731;51.166;4.474;2023-02-02T06:46:09;8.80;1.00
25933;DHT22;13731;51.166;4.474;2023-02-02T06:48:34;8.80;9.70
25933;DHT22;13731;51.166;4.474;2023-02-02T06:51:01;8.70;99.90
25933;DHT22;13731;51.166;4.474;2023-02-02T06:53:27;8.70;99.90
25933;DHT22;13731;51.166;4.474;2023-02-02T06:55:57;8.70;99.90
25933;DHT22;13731;51.166;4.474;2023-02-02T06:58:23;8.80;87.60
25933;DHT22;13731;51.166;4.474;2023-02-02T07:00:49;8.80;99.90
25933;DHT22;13731;51.166;4.474;2023-02-02T07:03:15;8.80;65.10
25933;DHT22;13731;51.166;4.474;2023-02-02T07:05:41;8.90;1.00
25933;DHT22;13731;51.166;4.474;2023-02-02T07:08:07;8.90;1.00
25933;DHT22;13731;51.166;4.474;2023-02-02T07:10:35;9.00;1.00
25933;DHT22;13731;51.166;4.474;2023-02-02T07:13:00;9.10;99.90
25933;DHT22;13731;51.166;4.474;2023-02-02T07:15:26;9.00;99.90
25933;DHT22;13731;51.166;4.474;2023-02-02T07:17:53;8.90;1.00
25933;DHT22;13731;51.166;4.474;2023-02-02T07:20:19;8.90;1.00
25933;DHT22;13731;51.166;4.474;2023-02-02T07:22:45;8.90;1.00
25933;DHT22;13731;51.166;4.474;2023-02-02T07:25:11;9.00;99.90
25933;DHT22;13731;51.166;4.474;2023-02-02T07:27:37;9.10;99.90
25933;DHT22;13731;51.166;4.474;2023-02-02T07:30:03;9.00;99.90
25933;DHT22;13731;51.166;4.474;2023-02-02T07:32:29;9.10;99.90
25933;DHT22;13731;51.166;4.474;2023-02-02T07:34:54;9.00;99.90
25933;DHT22;13731;51.166;4.474;2023-02-02T07:37:20;9.00;99.90
25933;DHT22;13731;51.166;4.474;2023-02-02T07:39:46;8.90;1.00
25933;DHT22;13731;51.166;4.474;2023-02-02T07:42:12;9.00;1.00
25933;DHT22;13731;51.166;4.474;2023-02-02T07:44:40;9.10;99.90
25933;DHT22;13731;51.166;4.474;2023-02-02T07:47:05;9.10;99.90
25933;DHT22;13731;51.166;4.474;2023-02-02T07:49:31;9.20;99.90
25933;DHT22;13731;51.166;4.474;2023-02-02T07:51:57;9.20;1.00
25933;DHT22;13731;51.166;4.474;2023-02-02T07:54:23;9.10;99.90
25933;DHT22;13731;51.166;4.474;2023-02-02T07:56:49;9.20;99.90
25933;DHT22;13731;51.166;4.474;2023-02-02T07:59:15;9.20;99.90
25933;DHT22;13731;51.166;4.474;2023-02-02T08:01:41;9.20;1.00
25933;DHT22;13731;51.166;4.474;2023-02-02T08:04:06;9.30;1.00
25933;DHT22;13731;51.166;4.474;2023-02-02T08:06:38;9.20;99.90
25933;DHT22;13731;51.166;4.474;2023-02-02T08:09:06;9.20;99.90
25933;DHT22;13731;51.166;4.474;2023-02-02T08:11:33;9.30;1.00
25933;DHT22;13731;51.166;4.474;2023-02-02T08:14:00;9.50;99.90
25933;DHT22;13731;51.166;4.474;2023-02-02T08:16:28;9.50;99.90
25933;DHT22;13731;51.166;4.474;2023-02-02T08:18:54;9.40;99.90
25933;DHT22;13731;51.166;4.474;2023-02-02T08:21:21;9.40;1.00
25933;DHT22;13731;51.166;4.474;2023-02-02T08:23:47;9.30;99.90
25933;DHT22;13731;51.166;4.474;2023-02-02T08:26:27;9.30;1.00
25933;DHT22;13731;51.166;4.474;2023-02-02T08:29:00;9.30;1.00
25933;DHT22;13731;51.166;4.474;2023-02-02T08:31:29;9.40;99.90
25933;DHT22;13731;51.166;4.474;2023-02-02T08:33:56;9.40;99.90
25933;DHT22;13731;51.166;4.474;2023-02-02T08:36:26;9.40;99.90
25933;DHT22;13731;51.166;4.474;2023-02-02T08:38:52;9.60;42.70
25933;DHT22;13731;51.166;4.474;2023-02-02T08:41:20;9.40;99.90
25933;DHT22;13731;51.166;4.474;2023-02-02T08:43:47;9.40;99.90
25933;DHT22;13731;51.166;4.474;2023-02-02T08:46:14;9.30;99.90
25933;DHT22;13731;51.166;4.474;2023-02-02T08:48:41;9.30;1.00
25933;DHT22;13731;51.166;4.474;2023-02-02T08:51:09;9.20;1.00
25933;DHT22;13731;51.166;4.474;2023-02-02T08:53:37;9.30;1.00
25933;DHT22;13731;51.166;4.474;2023-02-02T08:56:14;9.40;99.90
25933;DHT22;13731;51.166;4.474;2023-02-02T08:58:44;9.50;99.90
25933;DHT22;13731;51.166;4.474;2023-02-02T09:01:16;9.50;79.60
25933;DHT22;13731;51.166;4.474;2023-02-02T09:03:43;9.40;88.50
25933;DHT22;13731;51.166;4.474;2023-02-02T09:06:14;9.60;1.00
25933;DHT22;13731;51.166;4.474;2023-02-02T09:08:40;9.60;1.00
25933;DHT22;13731;51.166;4.474;2023-02-02T09:11:17;9.50;1.00
25933;DHT22;13731;51.166;4.474;2023-02-02T09:13:45;9.60;1.00
25933;DHT22;13731;51.166;4.474;2023-02-02T09:16:13;9.70;1.00
25933;DHT22;13731;51.166;4.474;2023-02-02T09:18:40;9.80;99.90
25933;DHT22;13731;51.166;4.474;2023-02-02T09:21:08;9.70;99.90
25933;DHT22;13731;51.166;4.474;2023-02-02T09:23:36;9.60;1.00
25933;DHT22;13731;51.166;4.474;2023-02-02T09:28:41;9.40;70.40
25933;DHT22;13731;51.166;4.474;2023-02-02T09:31:08;9.40;18.30
25933;DHT22;13731;51.166;4.474;2023-02-02T09:33:34;9.60;1.00
25933;DHT22;13731;51.166;4.474;2023-02-02T09:38:33;9.80;99.90
25933;DHT22;13731;51.166;4.474;2023-02-02T09:41:00;9.90;1.00
25933;DHT22;13731;51.166;4.474;2023-02-02T09:51:21;10.10;1.00
25933;DHT22;13731;51.166;4.474;2023-02-02T09:53:55;10.10;99.90
25933;DHT22;13731;51.166;4.474;2023-02-02T09:56:31;10.20;99.90
25933;DHT22;13731;51.166;4.474;2023-02-02T09:59:00;10.40;82.50
25933;DHT22;13731;51.166;4.474;2023-02-02T10:01:36;10.20;99.90
25933;DHT22;13731;51.166;4.474;2023-02-02T10:09:39;10.00;1.00
25933;DHT22;13731;51.166;4.474;2023-02-02T10:15:03;10.10;99.90
25933;DHT22;13731;51.166;4.474;2023-02-02T10:17:50;10.10;99.90
25933;DHT22;13731;51.166;4.474;2023-02-02T10:22:47;11.20;99.90
25933;DHT22;13731;51.166;4.474;2023-02-02T10:25:15;11.20;1.00
25933;DHT22;13731;51.166;4.474;2023-02-02T10:27:52;10.70;25.70
25933;DHT22;13731;51.166;4.474;2023-02-02T10:30:24;10.70;99.90
25933;DHT22;13731;51.166;4.474;2023-02-02T10:33:06;10.70;99.90
25933;DHT22;13731;51.166;4.474;2023-02-02T10:35:38;10.50;99.90
25933;DHT22;13731;51.166;4.474;2023-02-02T10:38:47;10.50;99.90
25933;DHT22;13731;51.166;4.474;2023-02-02T10:42:00;10.50;99.90
25933;DHT22;13731;51.166;4.474;2023-02-02T10:44:16;10.50;1.00
25933;DHT22;13731;51.166;4.474;2023-02-02T10:46:53;11.20;1.00
25933;DHT22;13731;51.166;4.474;2023-02-02T10:49:30;11.90;99.90
25933;DHT22;13731;51.166;4.474;2023-02-02T10:54:55;12.80;1.00
25933;DHT22;13731;51.166;4.474;2023-02-02T11:03:12;12.60;1.00
25933;DHT22;13731;51.166;4.474;2023-02-02T11:05:38;12.80;1.00
25933;DHT22;13731;51.166;4.474;2023-02-02T11:08:42;12.80;1.00
25933;DHT22;13731;51.166;4.474;2023-02-02T11:11:15;12.40;99.90
25933;DHT22;13731;51.166;4.474;2023-02-02T11:14:08;12.10;1.00
25933;DHT22;13731;51.166;4.474;2023-02-02T11:16:37;12.00;1.00
25933;DHT22;13731;51.166;4.474;2023-02-02T11:21:54;11.60;90.60
25933;DHT22;13731;51.166;4.474;2023-02-02T11:29:50;11.50;99.90
25933;DHT22;13731;51.166;4.474;2023-02-02T11:37:37;11.90;1.00
25933;DHT22;13731;51.166;4.474;2023-02-02T11:40:45;12.70;1.00
25933;DHT22;13731;51.166;4.474;2023-02-02T11:43:35;12.80;1.00
25933;DHT22;13731;51.166;4.474;2023-02-02T11:46:27;12.40;99.90
25933;DHT22;13731;51.166;4.474;2023-02-02T11:49:02;12.20;1.00
25933;DHT22;13731;51.166;4.474;2023-02-02T11:51:29;12.00;1.00
25933;DHT22;13731;51.166;4.474;2023-02-02T11:54:05;12.10;1.00
25933;DHT22;13731;51.166;4.474;2023-02-02T11:56:34;12.20;1.00
25933;DHT22;13731;51.166;4.474;2023-02-02T11:59:01;12.20;1.00
25933;DHT22;13731;51.166;4.474;2023-02-02T12:01:31;11.80;1.00
25933;DHT22;13731;51.166;4.474;2023-02-02T12:04:08;11.90;1.00
25933;DHT22;13731;51.166;4.474;2023-02-02T12:06:45;11.60;99.90
25933;DHT22;13731;51.166;4.474;2023-02-02T12:09:29;11.40;99.90
25933;DHT22;13731;51.166;4.474;2023-02-02T12:12:08;11.60;99.90
25933;DHT22;13731;51.166;4.474;2023-02-02T12:14:48;11.70;99.90
25933;DHT22;13731;51.166;4.474;2023-02-02T12:17:39;11.60;99.90
25933;DHT22;13731;51.166;4.474;2023-02-02T12:20:25;11.70;99.90
25933;DHT22;13731;51.166;4.474;2023-02-02T12:28:41;11.40;99.90
25933;DHT22;13731;51.166;4.474;2023-02-02T12:37:19;11.30;1.00
25933;DHT22;13731;51.166;4.474;2023-02-02T12:59:11;12.10;99.90
25933;DHT22;13731;51.166;4.474;2023-02-02T13:02:24;11.90;99.90
25933;DHT22;13731;51.166;4.474;2023-02-02T13:05:03;12.00;99.90
25933;DHT22;13731;51.166;4.474;2023-02-02T13:10:42;11.60;92.90
25933;DHT22;13731;51.166;4.474;2023-02-02T13:13:26;11.60;1.00
25933;DHT22;13731;51.166;4.474;2023-02-02T13:16:02;11.80;1.00
25933;DHT22;13731;51.166;4.474;2023-02-02T13:21:07;11.70;1.00
25933;DHT22;13731;51.166;4.474;2023-02-02T13:23:41;11.80;1.00
25933;DHT22;13731;51.166;4.474;2023-02-02T13:26:26;11.50;30.90
25933;DHT22;13731;51.166;4.474;2023-02-02T13:28:57;11.50;99.90
25933;DHT22;13731;51.166;4.474;2023-02-02T13:31:41;11.40;99.90
25933;DHT22;13731;51.166;4.474;2023-02-02T13:34:26;11.40;99.90
25933;DHT22;13731;51.166;4.474;2023-02-02T13:37:01;11.00;95.40
25933;DHT22;13731;51.166;4.474;2023-02-02T13:39:35;10.60;99.90
25933;DHT22;13731;51.166;4.474;2023-02-02T13:42:04;10.40;99.90
25933;DHT22;13731;51.166;4.474;2023-02-02T13:44:49;10.30;99.90
25933;DHT22;13731;51.166;4.474;2023-02-02T13:47:37;10.10;99.90
25933;DHT22;13731;51.166;4.474;2023-02-02T13:50:10;10.00;99.90
25933;DHT22;13731;51.166;4.474;2023-02-02T13:53:02;10.10;99.90
25933;DHT22;13731;51.166;4.474;2023-02-02T14:01:03;10.00;1.00
25933;DHT22;13731;51.166;4.474;2023-02-02T14:03:38;10.00;99.90
25933;DHT22;13731;51.166;4.474;2023-02-02T14:06:17;9.90;1.00
25933;DHT22;13731;51.166;4.474;2023-02-02T14:09:03;9.80;42.80
25933;DHT22;13731;51.166;4.474;2023-02-02T14:11:33;9.90;99.90
25933;DHT22;13731;51.166;4.474;2023-02-02T14:14:15;9.90;99.90
25933;DHT22;13731;51.166;4.474;2023-02-02T14:16:58;9.70;99.90
25933;DHT22;13731;51.166;4.474;2023-02-02T14:40:59;9.80;99.90
25933;DHT22;13731;51.166;4.474;2023-02-02T14:43:48;9.80;1.00
25933;DHT22;13731;51.166;4.474;2023-02-02T14:46:25;9.90;99.90
25933;DHT22;13731;51.166;4.474;2023-02-02T14:51:28;10.00;99.90
25933;DHT22;13731;51.166;4.474;2023-02-02T14:53:59;9.90;1.00
25933;DHT22;13731;51.166;4.474;2023-02-02T14:56:45;10.10;1.00
25933;DHT22;13731;51.166;4.474;2023-02-02T14:59:34;10.10;1.00
25933;DHT22;13731;51.166;4.474;2023-02-02T15:02:34;10.10;1.00
25933;DHT22;13731;51.166;4.474;2023-02-02T15:08:38;10.20;1.00
25933;DHT22;13731;51.166;4.474;2023-02-02T15:11:06;10.20;1.00
25933;DHT22;13731;51.166;4.474;2023-02-02T15:13:58;10.20;99.90
25933;DHT22;13731;51.166;4.474;2023-02-02T15:16:32;10.20;99.90
25933;DHT22;13731;51.166;4.474;2023-02-02T15:19:30;10.20;1.00
25933;DHT22;13731;51.166;4.474;2023-02-02T15:24:43;10.30;99.90
25933;DHT22;13731;51.166;4.474;2023-02-02T15:27:21;10.20;1.00
25933;DHT22;13731;51.166;4.474;2023-02-02T15:29:52;10.30;1.00
25933;DHT22;13731;51.166;4.474;2023-02-02T15:32:24;10.40;1.00
25933;DHT22;13731;51.166;4.474;2023-02-02T15:34:57;10.40;1.00
25933;DHT22;13731;51.166;4.474;2023-02-02T15:37:29;10.30;1.00
25933;DHT22;13731;51.166;4.474;2023-02-02T15:39:59;10.50;1.00
25933;DHT22;13731;51.166;4.474;2023-02-02T15:42:40;10.50;99.90
25933;DHT22;13731;51.166;4.474;2023-02-02T15:48:20;10.60;99.90
25933;DHT22;13731;51.166;4.474;2023-02-02T15:50:48;10.50;99.90
25933;DHT22;13731;51.166;4.474;2023-02-02T15:53:25;10.40;99.90
25933;DHT22;13731;51.166;4.474;2023-02-02T15:55:53;10.40;99.90
25933;DHT22;13731;51.166;4.474;2023-02-02T15:58:30;10.40;99.90
25933;DHT22;13731;51.166;4.474;2023-02-02T16:01:00;10.20;99.90
25933;DHT22;13731;51.166;4.474;2023-02-02T16:03:29;10.20;99.90
25933;DHT22;13731;51.166;4.474;2023-02-02T16:05:57;10.20;99.90
25933;DHT22;13731;51.166;4.474;2023-02-02T16:08:27;10.10;99.90
25933;DHT22;13731;51.166;4.474;2023-02-02T16:11:22;9.90;1.00
25933;DHT22;13731;51.166;4.474;2023-02-02T16:14:05;10.00;1.00
25933;DHT22;13731;51.166;4.474;2023-02-02T16:16:36;10.10;99.90
25933;DHT22;13731;51.166;4.474;2023-02-02T16:22:06;9.90;1.00
25933;DHT22;13731;51.166;4.474;2023-02-02T16:24:35;10.00;1.00
25933;DHT22;13731;51.166;4.474;2023-02-02T16:27:05;10.00;1.00
25933;DHT22;13731;51.166;4.474;2023-02-02T16:29:33;9.90;1.00
25933;DHT22;13731;51.166;4.474;2023-02-02T16:31:59;10.00;1.00
25933;DHT22;13731;51.166;4.474;2023-02-02T16:37:27;10.10;99.90
25933;DHT22;13731;51.166;4.474;2023-02-02T16:39:55;10.00;99.90
25933;DHT22;13731;51.166;4.474;2023-02-02T16:42:27;10.00;1.00
25933;DHT22;13731;51.166;4.474;2023-02-02T16:44:55;10.00;1.00
25933;DHT22;13731;51.166;4.474;2023-02-02T16:53:20;10.20;99.90
25933;DHT22;13731;51.166;4.474;2023-02-02T16:55:47;10.10;99.90
25933;DHT22;13731;51.166;4.474;2023-02-02T16:58:19;10.10;99.90
25933;DHT22;13731;51.166;4.474;2023-02-02T17:01:03;10.20;99.90
25933;DHT22;13731;51.166;4.474;2023-02-02T17:03:32;10.40;1.00
25933;DHT22;13731;51.166;4.474;2023-02-02T17:05:59;10.30;1.00
25933;DHT22;13731;51.166;4.474;2023-02-02T17:08:30;10.20;99.90
25933;DHT22;13731;51.166;4.474;2023-02-02T17:11:05;10.30;1.00
25933;DHT22;13731;51.166;4.474;2023-02-02T17:13:36;10.30;1.00
25933;DHT22;13731;51.166;4.474;2023-02-02T17:16:03;10.30;1.00
25933;DHT22;13731;51.166;4.474;2023-02-02T17:18:29;10.30;1.00
25933;DHT22;13731;51.166;4.474;2023-02-02T17:20:57;10.20;1.00
25933;DHT22;13731;51.166;4.474;2023-02-02T17:23:30;10.10;99.90
25933;DHT22;13731;51.166;4.474;2023-02-02T17:25:56;10.20;94.90
25933;DHT22;13731;51.166;4.474;2023-02-02T17:28:24;10.10;99.90
25933;DHT22;13731;51.166;4.474;2023-02-02T17:31:02;10.20;1.90
25933;DHT22;13731;51.166;4.474;2023-02-02T17:33:33;10.30;1.00
25933;DHT22;13731;51.166;4.474;2023-02-02T17:36:02;10.20;1.00
25933;DHT22;13731;51.166;4.474;2023-02-02T17:38:29;10.10;99.90
25933;DHT22;13731;51.166;4.474;2023-02-02T17:40:58;10.10;99.90
25933;DHT22;13731;51.166;4.474;2023-02-02T17:43:24;10.10;99.90
25933;DHT22;13731;51.166;4.474;2023-02-02T17:45:50;10.20;31.10
25933;DHT22;13731;51.166;4.474;2023-02-02T17:48:16;10.10;99.90
25933;DHT22;13731;51.166;4.474;2023-02-02T17:50:42;10.20;94.80
25933;DHT22;13731;51.166;4.474;2023-02-02T17:53:10;10.30;1.00
25933;DHT22;13731;51.166;4.474;2023-02-02T17:55:38;10.30;1.00
25933;DHT22;13731;51.166;4.474;2023-02-02T17:58:04;10.20;38.40
25933;DHT22;13731;51.166;4.474;2023-02-02T18:00:33;10.20;99.90
25933;DHT22;13731;51.166;4.474;2023-02-02T18:03:17;10.20;99.90
25933;DHT22;13731;51.166;4.474;2023-02-02T18:05:44;10.10;99.90
25933;DHT22;13731;51.166;4.474;2023-02-02T18:08:11;10.10;99.90
25933;DHT22;13731;51.166;4.474;2023-02-02T18:10:37;10.10;99.90
25933;DHT22;13731;51.166;4.474;2023-02-02T18:13:07;10.20;20.90
25933;DHT22;13731;51.166;4.474;2023-02-02T18:15:33;10.10;99.90
25933;DHT22;13731;51.166;4.474;2023-02-02T18:18:00;9.80;1.00
25933;DHT22;13731;51.166;4.474;2023-02-02T18:20:27;9.80;1.00
25933;DHT22;13731;51.166;4.474;2023-02-02T18:22:53;9.70;1.00
25933;DHT22;13731;51.166;4.474;2023-02-02T18:25:19;9.60;99.90
25933;DHT22;13731;51.166;4.474;2023-02-02T18:27:45;9.60;99.90
25933;DHT22;13731;51.166;4.474;2023-02-02T18:30:12;9.50;99.90
25933;DHT22;13731;51.166;4.474;2023-02-02T18:32:39;9.50;99.90
25933;DHT22;13731;51.166;4.474;2023-02-02T18:35:08;9.50;99.90
25933;DHT22;13731;51.166;4.474;2023-02-02T18:37:35;9.40;99.90
25933;DHT22;13731;51.166;4.474;2023-02-02T18:40:02;9.40;1.00
25933;DHT22;13731;51.166;4.474;2023-02-02T18:42:28;9.50;99.90
25933;DHT22;13731;51.166;4.474;2023-02-02T18:45:00;9.60;99.90
25933;DHT22;13731;51.166;4.474;2023-02-02T18:47:26;9.60;99.90
25933;DHT22;13731;51.166;4.474;2023-02-02T18:49:53;9.70;88.70